Detalii statie COMAGRA BEREGSAU [00001994]

Toti senzorii

Date Temperatura solului [C]Precipitatii [mm]Voltaj baterie [mV]Leaf Wetness [Min]HC Air temperature [C]HC Relative humidity [%]Punctul de roua [C]
medieminmaxsumaultimatimpmedieminmaxmediemediemin
2017-08-14 20:00:00 23.1 23 23.2 0 6922 23.93 22.39 25.15 66.41 17 16.5
2017-08-14 21:00:00 22.8 22.7 22.9 0 6854 21.19 20.53 21.85 82.27 17.9 17.7
2017-08-14 22:00:00 22.6 22.4 22.8 0 6826 19.72 19.32 20.35 91.18 18 18
2017-08-14 23:00:00 22.2 22.1 22.4 0 6806 19.11 18.73 19.3 94.86 18.1 18
2017-08-15 00:00:00 21.8 21.7 22.2 0 6806 17.96 17.44 18.63 99.41 17.8 17.4
2017-08-15 01:00:00 21.6 21.5 21.8 0 6796 17.3 17.01 17.43 100 17.2 17
2017-08-15 02:00:00 21.2 21.1 21.5 0 6796 16.68 16.57 16.76 100 16.6 16.5
2017-08-15 03:00:00 20.9 20.8 21.1 0 6796 16.13 15.86 16.48 100 16 15.8
2017-08-15 04:00:00 20.7 20.2 21 0 6786 15.68 15.37 15.95 100 15.6 15.3
2017-08-15 05:00:00 20.4 20.3 20.6 0 6786 15.35 15.16 15.49 100 15.2 15.1
2017-08-15 06:00:00 20.1 19.9 20.4 0 6766 14.62 14.27 15.13 100 14.5 14.2
2017-08-15 07:00:00 19.8 19.7 20.1 0 6826 14.87 14.22 15.79 100 14.8 14.2
2017-08-15 08:00:00 19.7 19.5 20 0 6904 16.56 15.85 17.28 100 16.5 15.8
2017-08-15 09:00:00 19.7 19.6 19.9 0 7020 18.6 17.61 19.97 100 18.5 17.6
2017-08-15 10:00:00 19.5 19.5 19.6 0 7088 21.64 20.09 23.06 84.48 18.7 18.1
2017-08-15 11:00:00 19.7 19.5 20 0 7186 24.08 23.02 25.03 69.58 18 17.4
2017-08-15 12:00:00 19.8 19.6 20.2 0 7196 26.06 25.13 26.99 59.86 17.4 17
2017-08-15 13:00:00 20.6 20.2 21.2 0 7186 27.65 27.4 28.07 56.53 18 17.6
2017-08-15 14:00:00 21.8 21.3 22.3 0 7186 28.55 27.96 29 53.83 18.1 17.4
2017-08-15 15:00:00 22.8 22.4 23.4 0 7186 29.36 28.91 29.8 52.72 18.5 17.8
2017-08-15 16:00:00 23.7 23.2 24 0 7186 29.64 29.27 30.19 51.06 18.1 17.6
2017-08-15 17:00:00 24.2 23.9 24.4 0 7196 29.53 29.37 29.86 49.43 17.6 17.2
2017-08-15 18:00:00 24.4 24.3 24.5 0 7186 29.09 28.75 29.41 51.19 17.8 17.5
2017-08-15 19:00:00 24.4 24.3 24.6 0 7176 27.71 26.66 28.54 55.65 17.8 17.4
2017-08-15 20:00:00 24.1 24 24.5 0 6904 25.23 24.23 26.45 64.92 17.9 17.8
2017-08-15 21:00:00 23.8 23.7 24 0 6834 22.89 22.18 23.96 74.62 17.9 17.8
2017-08-15 22:00:00 23.4 23.2 23.6 0 6816 21.04 20.45 22.17 85.54 18.3 18
2017-08-15 23:00:00 23 22.7 23.2 0 6806 20.08 19.58 20.48 91.94 18.6 18.5
2017-08-16 00:00:00 22.6 22.5 22.9 0 6796 19.39 19.18 19.57 95.3 18.5 18.3
2017-08-16 01:00:00 22.2 22.1 22.4 0 6786 19.01 18.96 19.07 97.19 18.4 18.2
2017-08-16 02:00:00 22 21.8 22.3 0 6786 18.56 18.51 18.74 99.41 18.3 18.2
2017-08-16 03:00:00 21.6 21.6 21.9 0 6776 17.92 17.41 18.59 100 17.8 17.4
2017-08-16 04:00:00 21.3 21.3 21.6 0 6776 17.1 16.82 17.37 100 17 16.8
2017-08-16 05:00:00 21.1 21 21.4 0 6766 16.73 16.54 16.91 100 16.6 16.5
2017-08-16 06:00:00 20.9 20.8 21.1 0 6748 16.36 15.99 16.58 100 16.3 15.9
2017-08-16 07:00:00 20.7 20.5 20.9 0 6796 16.51 15.97 17.44 100 16.4 15.9
2017-08-16 08:00:00 20.5 20.5 20.7 0 6884 18.7 17.7 19.93 100 18.6 17.7
2017-08-16 09:00:00 20.4 20.4 20.5 0 6992 21.44 20.04 22.81 94.49 20.3 20
2017-08-16 10:00:00 20.4 20.2 20.6 0 7050 24.13 23.02 25.07 82.08 20.7 20.4
2017-08-16 11:00:00 20.6 20.2 20.8 0 7166 26.36 25.26 27.25 73.59 21 20.6
2017-08-16 12:00:00 20.8 20.6 21.2 0 7186 28.64 27.66 29.65 63.23 20.7 20.1
2017-08-16 13:00:00 21.6 21.1 22.1 0 7186 30.35 29.72 30.97 55.69 20.2 19.6
2017-08-16 14:00:00 22.8 22.3 23.5 0 7186 31.47 30.83 31.98 48.51 19 17.8
2017-08-16 15:00:00 24 23.6 24.5 0 7186 32.14 31.33 32.71 45.04 18.5 17.8
2017-08-16 16:00:00 24.9 24.7 25.3 0 7186 32.35 31.96 33.03 44.13 18.3 17.6
2017-08-16 17:00:00 25.5 25.3 25.9 0 7186 32.09 31.7 32.43 43.11 17.7 17.3
2017-08-16 18:00:00 25.8 25.8 25.9 0 7196 31.25 30.73 31.75 44.54 17.5 16.8
2017-08-16 19:00:00 25.7 25.7 25.9 0 7176 29.78 28.84 30.57 45.61 16.5 15.6